Terminal Aerodrome Forecast
Issued by NWS Twin Cities, MN

Home | Current Version | Previous Version | Graphics & Text | Print | Product List | Glossary On
Versions: 1 2 3 4 5 6 7 8 9 10 11 12 13 14 15
000
FTUS43 KMPX 250732 AAA
TAFEAU
TAF AMD
KEAU 250732Z 2508/2606 12010G15KT P6SM OVC015
     FM251200 09012G17KT P6SM SCT020 OVC035
     FM251500 09014G20KT P6SM OVC050
     FM252000 07010KT P6SM BKN050
     FM260200 06004KT P6SM SKC=

USA.gov is the U.S. government's official web portal to all federal, state and local government web resources and services.